Terminal Aerodrome Forecast
Issued by NWS

Home | Current Version | Previous Version | Text Only | Print | Product List | Glossary On
Versions: 1 2 3 4 5 6 7 8 9 10 11 12 13 14 15 16 17
001
FTUS43 KICT 232320
TAFCNU
TAF
KCNU 232320Z 2400/2424 01012KT P6SM FEW200
     FM240100 36005KT P6SM FEW200=

USA.gov is the U.S. government's official web portal to all federal, state and local government web resources and services.